Time;durP1;ratioP1;P1;durP2;ratioP2;P2;SDS_P1;SDS_P2;PMS_P1;PMS_P2;Temp;Humidity;BMP_temperature;BMP_pressure;BME280_temperature;BME280_humidity;BME280_pressure;Samples;Min_cycle;Max_cycle;Signal;HPM_P1;HPM_P2
2022/10/30 00:00:34;;;;;;;;;;;18.90;99.90;;;;;;4965244;28;20253;-84
2022/10/30 00:03:00;;;;;;;;;;;18.90;99.90;;;;;;4966371;28;19914;-84
2022/10/30 00:05:26;;;;;;;;;;;19.00;99.90;;;;;;4965833;28;19965;-85
2022/10/30 00:07:53;;;;;;;;;;;19.20;99.90;;;;;;4964304;28;19960;-84
2022/10/30 00:10:19;;;;;;;;;;;19.30;99.90;;;;;;4967687;28;19932;-85
2022/10/30 00:12:44;;;;;;;;;;;19.50;99.90;;;;;;4963802;28;20299;-84
2022/10/30 00:15:10;;;;;;;;;;;19.70;99.90;;;;;;4965712;28;20539;-84
2022/10/30 00:17:35;;;;;;;;;;;19.80;99.90;;;;;;4963658;28;19918;-84
2022/10/30 00:20:01;;;;;;;;;;;20.00;99.90;;;;;;4966010;28;19917;-84
2022/10/30 00:22:27;;;;;;;;;;;20.10;99.90;;;;;;4968240;28;20431;-84
2022/10/30 00:24:52;;;;;;;;;;;20.20;99.90;;;;;;4964491;28;19922;-84
2022/10/30 00:27:18;;;;;;;;;;;20.30;99.90;;;;;;4966110;28;19928;-82
2022/10/30 00:29:43;;;;;;;;;;;20.40;99.90;;;;;;4967073;28;19910;-84
2022/10/30 00:32:09;;;;;;;;;;;20.50;98.90;;;;;;4965120;28;19917;-82
2022/10/30 00:34:34;;;;;;;;;;;20.40;97.80;;;;;;4968007;28;19910;-84
2022/10/30 00:37:00;;;;;;;;;;;20.60;97.10;;;;;;4964435;28;19932;-83
2022/10/30 00:39:25;;;;;;;;;;;20.70;96.60;;;;;;4967579;28;19964;-86
2022/10/30 00:41:51;;;;;;;;;;;20.80;96.80;;;;;;4966218;28;19910;-82
2022/10/30 00:44:32;;;;;;;;;;;20.70;97.40;;;;;;4966503;28;19911;-85
2022/10/30 00:46:58;;;;;;;;;;;20.70;97.80;;;;;;4965779;28;20348;-85
2022/10/30 00:49:24;;;;;;;;;;;20.70;98.80;;;;;;4963507;28;19918;-84
2022/10/30 00:51:52;;;;;;;;;;;20.60;99.70;;;;;;4968567;28;19910;-84
2022/10/30 00:54:19;;;;;;;;;;;20.50;98.80;;;;;;4965824;28;19937;-85
2022/10/30 00:56:45;;;;;;;;;;;20.50;99.90;;;;;;4966185;28;19924;-85
2022/10/30 00:59:12;;;;;;;;;;;20.50;99.30;;;;;;4966781;28;19925;-85
2022/10/30 01:01:39;;;;;;;;;;;20.60;99.90;;;;;;4965880;28;19957;-86
2022/10/30 01:04:05;;;;;;;;;;;20.50;99.90;;;;;;4964929;28;19913;-86
2022/10/30 01:06:32;;;;;;;;;;;20.50;99.90;;;;;;4969299;28;20291;-83
2022/10/30 01:08:58;;;;;;;;;;;20.60;99.90;;;;;;4966095;28;20264;-86
2022/10/30 01:11:24;;;;;;;;;;;20.60;99.90;;;;;;4969727;28;19933;-85
2022/10/30 01:13:51;;;;;;;;;;;20.50;99.90;;;;;;4969419;28;19910;-85
2022/10/30 01:16:35;;;;;;;;;;;20.50;99.00;;;;;;4970042;28;20290;-85
2022/10/30 01:19:03;;;;;;;;;;;20.50;99.90;;;;;;4970600;28;20012;-85
2022/10/30 01:21:36;;;;;;;;;;;20.50;99.60;;;;;;4969352;28;19910;-85
2022/10/30 01:24:24;;;;;;;;;;;20.50;98.60;;;;;;4967558;28;19969;-85
2022/10/30 01:26:59;;;;;;;;;;;20.50;99.30;;;;;;4967603;28;19918;-83
2022/10/30 01:29:34;;;;;;;;;;;20.50;99.20;;;;;;4970931;28;20267;-85
2022/10/30 01:32:05;;;;;;;;;;;20.50;99.80;;;;;;4967657;28;19993;-83
2022/10/30 01:34:43;;;;;;;;;;;20.40;99.90;;;;;;4970218;28;19910;-85
2022/10/30 01:37:11;;;;;;;;;;;20.30;99.80;;;;;;4969524;28;19960;-84
2022/10/30 01:39:38;;;;;;;;;;;20.20;99.90;;;;;;4963057;28;19941;-84
2022/10/30 01:42:08;;;;;;;;;;;20.10;99.90;;;;;;4970174;28;19965;-85
2022/10/30 01:44:33;;;;;;;;;;;20.00;99.90;;;;;;4967826;28;19937;-85
2022/10/30 01:47:17;;;;;;;;;;;19.90;99.90;;;;;;4965437;28;19914;-85
2022/10/30 01:49:49;;;;;;;;;;;19.80;99.90;;;;;;4968060;28;20347;-85
2022/10/30 01:52:36;;;;;;;;;;;19.70;99.90;;;;;;4969546;28;19913;-85
2022/10/30 01:55:02;;;;;;;;;;;19.60;99.90;;;;;;4962128;28;20266;-86
2022/10/30 01:57:38;;;;;;;;;;;19.60;99.90;;;;;;4966959;28;19918;-85
2022/10/30 02:00:07;;;;;;;;;;;19.60;99.90;;;;;;4970309;28;19921;-85
2022/10/30 02:02:33;;;;;;;;;;;19.60;99.90;;;;;;4968813;28;19938;-85
2022/10/30 02:04:59;;;;;;;;;;;19.70;99.90;;;;;;4967749;28;19949;-85
2022/10/30 02:07:25;;;;;;;;;;;19.70;99.90;;;;;;4971402;28;19914;-84
2022/10/30 02:09:52;;;;;;;;;;;19.90;99.90;;;;;;4971055;28;20002;-84
2022/10/30 02:12:18;;;;;;;;;;;20.10;99.90;;;;;;4967091;28;19917;-83
2022/10/30 02:14:46;;;;;;;;;;;20.30;99.90;;;;;;4967572;28;19914;-85
2022/10/30 02:17:12;;;;;;;;;;;20.60;99.90;;;;;;4970265;28;20020;-84
2022/10/30 02:19:37;;;;;;;;;;;20.80;99.90;;;;;;4970682;28;19914;-84
2022/10/30 02:22:03;;;;;;;;;;;20.90;99.90;;;;;;4969426;28;20008;-84
2022/10/30 02:24:29;;;;;;;;;;;20.90;99.90;;;;;;4969739;28;19956;-83
2022/10/30 02:26:54;;;;;;;;;;;20.90;99.90;;;;;;4968433;28;19910;-84
2022/10/30 02:29:20;;;;;;;;;;;20.90;99.90;;;;;;4966627;28;19979;-86
2022/10/30 02:31:46;;;;;;;;;;;20.90;99.90;;;;;;4970475;28;20319;-87
2022/10/30 02:34:12;;;;;;;;;;;20.90;99.90;;;;;;4953204;28;19933;-84
2022/10/30 02:36:37;;;;;;;;;;;20.90;99.90;;;;;;4970282;28;19913;-85
2022/10/30 02:39:03;;;;;;;;;;;20.80;99.90;;;;;;4966771;28;19961;-83
2022/10/30 02:41:29;;;;;;;;;;;20.80;99.90;;;;;;4963909;28;20302;-85
2022/10/30 02:43:54;;;;;;;;;;;20.80;99.90;;;;;;4965688;28;19910;-86
2022/10/30 02:46:20;;;;;;;;;;;20.70;99.90;;;;;;4965439;28;20287;-85
2022/10/30 02:48:45;;;;;;;;;;;20.70;99.90;;;;;;4969294;28;19913;-85
2022/10/30 02:51:11;;;;;;;;;;;20.70;99.90;;;;;;4967429;28;20046;-85
2022/10/30 02:53:37;;;;;;;;;;;20.70;99.90;;;;;;4967267;28;19914;-84
2022/10/30 02:56:06;;;;;;;;;;;20.70;99.90;;;;;;4968425;28;19924;-85
2022/10/30 02:58:32;;;;;;;;;;;20.60;99.90;;;;;;4971758;28;19925;-85
2022/10/30 03:01:03;;;;;;;;;;;20.40;99.90;;;;;;4963996;28;19910;-84
2022/10/30 03:03:29;;;;;;;;;;;20.30;99.90;;;;;;4966385;28;19913;-86
2022/10/30 03:05:54;;;;;;;;;;;20.20;99.90;;;;;;4964761;28;19926;-86
2022/10/30 03:08:20;;;;;;;;;;;20.10;99.90;;;;;;4964736;28;19981;-85
2022/10/30 03:10:45;;;;;;;;;;;20.00;99.90;;;;;;4970196;28;20355;-85
2022/10/30 03:13:11;;;;;;;;;;;19.90;99.90;;;;;;4963583;28;19949;-85
2022/10/30 03:15:36;;;;;;;;;;;19.70;99.90;;;;;;4968554;28;19914;-84
2022/10/30 03:18:02;;;;;;;;;;;19.60;99.90;;;;;;4965043;28;20000;-85
2022/10/30 03:20:28;;;;;;;;;;;19.50;99.90;;;;;;4965160;28;19953;-86
2022/10/30 03:22:54;;;;;;;;;;;19.40;99.90;;;;;;4965547;28;19996;-85
2022/10/30 03:25:22;;;;;;;;;;;19.30;99.90;;;;;;4968389;28;20005;-85
2022/10/30 03:27:48;;;;;;;;;;;19.10;99.90;;;;;;4968636;28;19910;-85
2022/10/30 03:30:13;;;;;;;;;;;19.00;99.90;;;;;;4961968;28;20019;-86
2022/10/30 03:32:39;;;;;;;;;;;18.90;99.90;;;;;;4968873;28;19914;-83
2022/10/30 03:35:04;;;;;;;;;;;18.80;99.90;;;;;;4969286;28;19949;-85
2022/10/30 03:37:30;;;;;;;;;;;18.70;99.90;;;;;;4967974;28;19914;-85
2022/10/30 03:39:55;;;;;;;;;;;18.60;99.90;;;;;;4963209;28;19914;-85
2022/10/30 03:42:21;;;;;;;;;;;18.50;99.90;;;;;;4969164;28;20363;-85
2022/10/30 03:44:46;;;;;;;;;;;18.40;99.90;;;;;;4966669;28;19918;-86
2022/10/30 03:47:13;;;;;;;;;;;18.40;99.90;;;;;;4964958;28;19910;-85
2022/10/30 03:49:39;;;;;;;;;;;18.30;99.90;;;;;;4964708;28;20000;-85
2022/10/30 03:52:04;;;;;;;;;;;18.30;99.90;;;;;;4966707;28;20005;-85
2022/10/30 03:54:30;;;;;;;;;;;18.20;99.90;;;;;;4968568;28;19914;-85
2022/10/30 03:56:55;;;;;;;;;;;18.10;99.90;;;;;;4968872;28;19917;-86
2022/10/30 03:59:21;;;;;;;;;;;18.10;99.90;;;;;;4965294;28;20402;-84
2022/10/30 04:01:46;;;;;;;;;;;18.10;99.90;;;;;;4965921;28;19988;-85
2022/10/30 04:04:12;;;;;;;;;;;18.00;99.90;;;;;;4966621;28;19945;-85
2022/10/30 04:06:37;;;;;;;;;;;18.00;99.90;;;;;;4967669;28;19918;-85
2022/10/30 04:09:03;;;;;;;;;;;17.90;99.90;;;;;;4967742;28;20382;-85
2022/10/30 04:11:28;;;;;;;;;;;17.90;99.90;;;;;;4969018;28;19910;-85
2022/10/30 04:13:54;;;;;;;;;;;17.90;99.90;;;;;;4968688;28;19920;-85
2022/10/30 04:16:19;;;;;;;;;;;17.80;99.90;;;;;;4963715;28;19910;-85
2022/10/30 04:18:45;;;;;;;;;;;17.90;99.90;;;;;;4968343;28;19921;-85
2022/10/30 04:21:10;;;;;;;;;;;17.80;99.90;;;;;;4968789;28;19913;-85
2022/10/30 04:23:36;;;;;;;;;;;17.80;99.90;;;;;;4968516;28;19932;-87
2022/10/30 04:26:01;;;;;;;;;;;17.90;99.90;;;;;;4968415;28;19968;-84
2022/10/30 04:28:27;;;;;;;;;;;18.10;99.90;;;;;;4964470;28;20428;-85
2022/10/30 04:30:53;;;;;;;;;;;18.30;99.90;;;;;;4963390;28;20463;-85
2022/10/30 04:33:19;;;;;;;;;;;18.50;99.90;;;;;;4968355;28;19910;-86
2022/10/30 04:35:44;;;;;;;;;;;18.70;99.90;;;;;;4964992;28;20383;-85
2022/10/30 04:38:11;;;;;;;;;;;18.80;99.90;;;;;;4965059;28;19928;-85
2022/10/30 04:40:39;;;;;;;;;;;19.00;99.90;;;;;;4963479;28;19962;-83
2022/10/30 04:43:05;;;;;;;;;;;19.20;99.90;;;;;;4961844;28;19910;-85
2022/10/30 04:45:30;;;;;;;;;;;19.40;99.90;;;;;;4967136;28;20359;-84
2022/10/30 04:48:14;;;;;;;;;;;19.60;99.90;;;;;;4965770;28;19925;-85
2022/10/30 04:50:40;;;;;;;;;;;19.70;99.90;;;;;;4968739;28;19914;-85
2022/10/30 04:53:08;;;;;;;;;;;19.80;99.90;;;;;;4970078;28;20418;-84
2022/10/30 04:55:33;;;;;;;;;;;19.80;99.90;;;;;;4972103;28;19914;-86
2022/10/30 04:58:01;;;;;;;;;;;19.90;99.90;;;;;;4969112;28;19918;-85
2022/10/30 05:00:27;;;;;;;;;;;19.90;99.90;;;;;;4971744;28;20286;-87
2022/10/30 05:02:53;;;;;;;;;;;20.00;99.90;;;;;;4966237;28;19916;-86
2022/10/30 05:05:18;;;;;;;;;;;20.00;99.90;;;;;;4969220;28;19926;-86
2022/10/30 05:07:44;;;;;;;;;;;20.00;99.90;;;;;;4966474;28;21802;-88
2022/10/30 05:10:11;;;;;;;;;;;20.00;99.90;;;;;;4971568;28;19914;-86
2022/10/30 05:12:36;;;;;;;;;;;20.10;99.90;;;;;;4971581;28;19925;-85
2022/10/30 05:15:02;;;;;;;;;;;20.10;99.90;;;;;;4969011;28;19910;-89
2022/10/30 05:17:27;;;;;;;;;;;20.10;99.90;;;;;;4967304;28;19918;-87
2022/10/30 05:19:55;;;;;;;;;;;20.10;99.90;;;;;;4969901;28;19976;-86
2022/10/30 05:22:21;;;;;;;;;;;20.10;99.90;;;;;;4970116;28;19988;-86
2022/10/30 05:24:46;;;;;;;;;;;20.00;99.90;;;;;;4970379;28;19964;-86
2022/10/30 05:27:11;;;;;;;;;;;20.00;99.90;;;;;;4969453;28;19918;-86
2022/10/30 05:29:37;;;;;;;;;;;19.90;99.90;;;;;;4970620;28;20274;-86
2022/10/30 05:32:03;;;;;;;;;;;19.90;99.90;;;;;;4969176;28;19909;-88
2022/10/30 05:34:28;;;;;;;;;;;19.90;99.90;;;;;;4970139;28;19910;-86
2022/10/30 05:36:54;;;;;;;;;;;19.80;99.90;;;;;;4953448;28;19964;-87
2022/10/30 05:39:19;;;;;;;;;;;19.70;99.90;;;;;;4969192;28;19925;-85
2022/10/30 05:41:45;;;;;;;;;;;19.50;99.90;;;;;;4968467;28;19997;-87
2022/10/30 05:44:10;;;;;;;;;;;19.40;99.90;;;;;;4971253;28;19921;-87
2022/10/30 05:46:36;;;;;;;;;;;19.20;99.90;;;;;;4968071;28;19918;-86
2022/10/30 05:49:04;;;;;;;;;;;19.10;99.90;;;;;;4968116;28;19918;-85
2022/10/30 05:51:30;;;;;;;;;;;19.00;99.90;;;;;;4965869;28;19911;-86
2022/10/30 05:53:55;;;;;;;;;;;18.90;99.90;;;;;;4969134;28;19910;-86
2022/10/30 05:56:21;;;;;;;;;;;18.80;99.90;;;;;;4970147;28;20058;-89
2022/10/30 05:58:49;;;;;;;;;;;18.80;99.90;;;;;;4968653;28;19922;-86
2022/10/30 06:01:15;;;;;;;;;;;18.70;99.90;;;;;;4970697;28;19932;-86
2022/10/30 06:03:42;;;;;;;;;;;18.70;99.90;;;;;;4970275;28;19910;-87
2022/10/30 06:06:08;;;;;;;;;;;18.80;99.90;;;;;;4968176;28;19968;-86
2022/10/30 06:08:34;;;;;;;;;;;18.80;99.90;;;;;;4967259;28;19961;-86
2022/10/30 06:10:59;;;;;;;;;;;18.70;99.90;;;;;;4970822;28;19910;-86
2022/10/30 06:13:25;;;;;;;;;;;18.70;99.90;;;;;;4966348;28;19910;-86
2022/10/30 06:15:53;;;;;;;;;;;18.60;99.90;;;;;;4969411;28;21489;-86
2022/10/30 06:18:22;;;;;;;;;;;18.50;99.90;;;;;;4963413;28;20364;-84
2022/10/30 06:20:47;;;;;;;;;;;18.40;99.90;;;;;;4962068;28;19965;-86
2022/10/30 06:23:13;;;;;;;;;;;18.30;99.90;;;;;;4971334;28;19917;-87
2022/10/30 06:25:38;;;;;;;;;;;18.10;99.90;;;;;;4965000;28;19910;-86
2022/10/30 06:28:04;;;;;;;;;;;18.10;99.90;;;;;;4964577;28;19910;-86
2022/10/30 06:30:30;;;;;;;;;;;18.00;99.90;;;;;;4963701;28;19916;-85
2022/10/30 06:32:59;;;;;;;;;;;17.80;99.90;;;;;;4978108;28;19952;-87
2022/10/30 06:35:25;;;;;;;;;;;17.70;99.90;;;;;;4968615;28;19993;-87
2022/10/30 06:37:52;;;;;;;;;;;17.70;99.90;;;;;;4966068;28;20004;-86
2022/10/30 06:40:18;;;;;;;;;;;17.60;99.90;;;;;;4965240;28;19946;-87
2022/10/30 06:42:47;;;;;;;;;;;17.50;99.90;;;;;;4959640;28;20372;-85
2022/10/30 06:45:13;;;;;;;;;;;17.50;99.90;;;;;;4962011;28;19913;-86
2022/10/30 06:47:39;;;;;;;;;;;17.30;99.90;;;;;;4965482;28;19980;-86
2022/10/30 06:50:06;;;;;;;;;;;17.20;99.90;;;;;;4966996;28;20324;-86
2022/10/30 06:52:32;;;;;;;;;;;17.20;99.90;;;;;;4966928;28;19917;-87
2022/10/30 06:54:57;;;;;;;;;;;17.10;99.90;;;;;;4966951;28;20290;-86
2022/10/30 06:57:23;;;;;;;;;;;17.10;99.90;;;;;;4964364;28;19910;-85
2022/10/30 06:59:49;;;;;;;;;;;17.30;99.90;;;;;;4964687;28;19957;-83
2022/10/30 07:02:14;;;;;;;;;;;17.60;99.90;;;;;;4965757;28;19914;-85
2022/10/30 07:04:40;;;;;;;;;;;17.90;99.90;;;;;;4962208;28;19991;-86
2022/10/30 07:07:05;;;;;;;;;;;18.20;99.90;;;;;;4965296;28;20023;-84
2022/10/30 07:09:31;;;;;;;;;;;18.30;99.90;;;;;;4967731;28;19913;-85
2022/10/30 07:11:57;;;;;;;;;;;18.50;99.90;;;;;;4965517;28;19917;-86
2022/10/30 07:14:23;;;;;;;;;;;18.60;99.90;;;;;;4966894;28;19910;-85
2022/10/30 07:16:48;;;;;;;;;;;18.60;99.90;;;;;;4965895;28;19921;-86
2022/10/30 07:19:14;;;;;;;;;;;18.70;99.90;;;;;;4948109;28;19918;-85
2022/10/30 07:21:39;;;;;;;;;;;18.80;99.90;;;;;;4966304;28;19917;-86
2022/10/30 07:24:05;;;;;;;;;;;18.90;99.90;;;;;;4968826;28;20508;-85
2022/10/30 07:26:32;;;;;;;;;;;19.00;99.90;;;;;;4966349;28;19917;-86
2022/10/30 07:28:57;;;;;;;;;;;19.10;99.90;;;;;;4966844;28;19997;-85
2022/10/30 07:31:23;;;;;;;;;;;19.10;99.90;;;;;;4967093;28;20384;-85
2022/10/30 07:33:49;;;;;;;;;;;19.10;99.90;;;;;;4967470;28;20289;-86
2022/10/30 07:36:14;;;;;;;;;;;19.10;99.90;;;;;;4963940;28;20272;-86
2022/10/30 07:38:40;;;;;;;;;;;19.10;99.90;;;;;;4963174;28;20021;-86
2022/10/30 07:41:05;;;;;;;;;;;19.10;99.90;;;;;;4962300;28;19947;-86
2022/10/30 07:43:31;;;;;;;;;;;19.00;99.90;;;;;;4964821;28;19938;-87
2022/10/30 07:45:56;;;;;;;;;;;18.90;99.90;;;;;;4966617;28;19918;-86
2022/10/30 07:48:22;;;;;;;;;;;18.90;99.90;;;;;;4968089;28;19993;-86
2022/10/30 07:50:47;;;;;;;;;;;18.80;99.90;;;;;;4963543;28;19925;-86
2022/10/30 07:53:13;;;;;;;;;;;18.80;99.90;;;;;;4967704;28;19913;-86
2022/10/30 07:55:43;;;;;;;;;;;18.80;99.90;;;;;;4967188;28;20303;-86
2022/10/30 07:58:09;;;;;;;;;;;18.80;99.90;;;;;;4965261;28;19925;-85
2022/10/30 08:00:34;;;;;;;;;;;18.80;99.90;;;;;;4965227;28;19910;-87
2022/10/30 08:03:00;;;;;;;;;;;18.80;99.90;;;;;;4964639;28;19910;-88
2022/10/30 08:05:25;;;;;;;;;;;18.80;99.90;;;;;;4960399;28;19925;-87
2022/10/30 08:07:51;;;;;;;;;;;18.70;99.90;;;;;;4965969;28;20008;-87
2022/10/30 08:10:16;;;;;;;;;;;18.80;99.90;;;;;;4962611;28;20025;-87
2022/10/30 08:12:44;;;;;;;;;;;18.80;99.90;;;;;;4948999;28;19917;-87
2022/10/30 08:15:10;;;;;;;;;;;18.90;99.90;;;;;;4964711;28;19985;-87
2022/10/30 08:17:46;;;;;;;;;;;19.10;99.90;;;;;;4962223;28;19914;-86
2022/10/30 08:20:13;;;;;;;;;;;19.20;99.90;;;;;;4963723;28;19969;-87
2022/10/30 08:23:11;;;;;;;;;;;19.40;99.90;;;;;;4959552;28;20094;-87
2022/10/30 08:25:36;;;;;;;;;;;19.50;99.90;;;;;;4918182;28;19958;-89
2022/10/30 08:28:03;;;;;;;;;;;19.60;99.90;;;;;;4961230;28;20497;-86
2022/10/30 08:30:30;;;;;;;;;;;19.70;99.90;;;;;;4944321;28;19906;-88
2022/10/30 08:32:57;;;;;;;;;;;19.80;99.90;;;;;;4958710;28;19912;-88
2022/10/30 08:35:23;;;;;;;;;;;19.90;99.90;;;;;;4960392;28;20360;-85
2022/10/30 08:37:48;;;;;;;;;;;19.90;99.90;;;;;;4958898;28;19926;-83
2022/10/30 08:40:14;;;;;;;;;;;19.90;99.90;;;;;;4963739;28;19914;-86
2022/10/30 08:42:39;;;;;;;;;;;20.10;99.90;;;;;;4960590;28;20363;-86
2022/10/30 08:45:05;;;;;;;;;;;20.10;99.90;;;;;;4961612;28;19914;-86
2022/10/30 08:47:31;;;;;;;;;;;20.10;99.90;;;;;;4965408;28;20406;-86
2022/10/30 08:49:56;;;;;;;;;;;20.20;99.90;;;;;;4964490;28;19914;-88
2022/10/30 08:52:22;;;;;;;;;;;20.20;99.90;;;;;;4963952;28;20022;-87
2022/10/30 08:54:47;;;;;;;;;;;20.20;99.90;;;;;;4965084;28;20283;-87
2022/10/30 08:57:12;;;;;;;;;;;20.20;99.90;;;;;;4960515;28;19965;-86
2022/10/30 08:59:38;;;;;;;;;;;20.20;99.90;;;;;;4959088;28;19914;-88
2022/10/30 09:02:03;;;;;;;;;;;20.20;99.90;;;;;;4964630;28;19913;-88
2022/10/30 09:04:29;;;;;;;;;;;20.20;99.90;;;;;;4963832;28;19925;-88
2022/10/30 09:06:54;;;;;;;;;;;20.20;99.90;;;;;;4965690;28;19956;-88
2022/10/30 09:09:20;;;;;;;;;;;20.30;99.90;;;;;;4959764;28;19910;-87
2022/10/30 09:11:47;;;;;;;;;;;20.20;99.90;;;;;;4963773;28;19957;-88
2022/10/30 09:14:13;;;;;;;;;;;20.20;99.90;;;;;;4964604;28;19906;-87
2022/10/30 09:16:38;;;;;;;;;;;20.20;99.90;;;;;;4967672;28;19906;-88
2022/10/30 09:19:04;;;;;;;;;;;20.30;99.90;;;;;;4965072;28;20518;-87
2022/10/30 09:21:29;;;;;;;;;;;20.30;99.90;;;;;;4964352;28;19917;-87
2022/10/30 09:23:55;;;;;;;;;;;20.30;99.90;;;;;;4963688;28;19910;-89
2022/10/30 09:26:20;;;;;;;;;;;20.40;99.90;;;;;;4966802;28;19916;-85
2022/10/30 09:28:46;;;;;;;;;;;20.50;99.90;;;;;;4968812;28;20363;-87
2022/10/30 09:31:11;;;;;;;;;;;20.50;99.90;;;;;;4966044;28;19976;-87
2022/10/30 09:33:37;;;;;;;;;;;20.60;99.90;;;;;;4967344;28;19913;-87
2022/10/30 09:36:02;;;;;;;;;;;20.60;99.90;;;;;;4951643;28;19960;-86
2022/10/30 09:38:28;;;;;;;;;;;20.70;99.90;;;;;;4967263;28;19914;-88
2022/10/30 09:41:09;;;;;;;;;;;20.70;99.90;;;;;;4968573;28;19913;-87
2022/10/30 09:43:53;;;;;;;;;;;20.70;99.90;;;;;;4968197;28;19913;-87
2022/10/30 09:46:37;;;;;;;;;;;20.70;99.90;;;;;;4950863;28;20311;-88
2022/10/30 09:49:21;;;;;;;;;;;20.60;99.90;;;;;;4970743;28;20311;-87
2022/10/30 09:52:05;;;;;;;;;;;20.60;99.90;;;;;;4970855;28;19986;-88
2022/10/30 09:54:54;;;;;;;;;;;20.60;99.90;;;;;;4970148;28;20391;-87
2022/10/30 09:57:26;;;;;;;;;;;20.60;99.90;;;;;;4961088;28;20248;-86
2022/10/30 10:00:03;;;;;;;;;;;20.60;99.90;;;;;;4965133;28;20269;-85
2022/10/30 10:02:33;;;;;;;;;;;20.60;99.90;;;;;;4968672;28;19910;-85
2022/10/30 10:05:01;;;;;;;;;;;20.60;99.90;;;;;;4969633;28;20020;-87
2022/10/30 10:07:37;;;;;;;;;;;20.60;99.90;;;;;;4964554;28;19913;-86
2022/10/30 10:10:10;;;;;;;;;;;20.60;99.90;;;;;;4968443;28;20420;-84
2022/10/30 10:12:46;;;;;;;;;;;20.70;99.90;;;;;;4969243;28;19917;-85
2022/10/30 10:15:27;;;;;;;;;;;20.70;99.90;;;;;;4969038;28;19913;-85
2022/10/30 10:17:53;;;;;;;;;;;20.70;99.90;;;;;;4968092;28;19924;-85
2022/10/30 10:20:42;;;;;;;;;;;20.70;99.90;;;;;;4964556;28;20375;-86
2022/10/30 10:23:15;;;;;;;;;;;20.80;99.90;;;;;;4965916;28;19928;-85
2022/10/30 10:25:43;;;;;;;;;;;20.80;99.90;;;;;;4950916;28;20021;-85
2022/10/30 10:28:19;;;;;;;;;;;20.80;99.90;;;;;;4968086;28;19914;-85
2022/10/30 10:30:52;;;;;;;;;;;20.80;99.90;;;;;;4961278;28;19911;-84
2022/10/30 10:33:25;;;;;;;;;;;20.90;99.90;;;;;;4969989;28;19914;-85
2022/10/30 10:35:51;;;;;;;;;;;20.90;99.90;;;;;;4966984;28;19911;-85
2022/10/30 10:38:24;;;;;;;;;;;20.90;99.90;;;;;;4968556;28;19918;-85
2022/10/30 10:41:08;;;;;;;;;;;20.90;99.90;;;;;;4964152;28;19910;-85
2022/10/30 10:43:40;;;;;;;;;;;21.00;99.90;;;;;;4967525;28;20053;-86
2022/10/30 10:46:06;;;;;;;;;;;21.00;99.90;;;;;;4968058;28;19941;-84
2022/10/30 10:48:52;;;;;;;;;;;21.00;99.90;;;;;;4967979;28;20356;-85
2022/10/30 10:51:23;;;;;;;;;;;21.10;99.90;;;;;;4920489;28;19921;-85
2022/10/30 10:53:52;;;;;;;;;;;21.10;99.90;;;;;;4969094;28;19914;-85
2022/10/30 10:56:25;;;;;;;;;;;21.10;99.90;;;;;;4963130;28;19915;-84
2022/10/30 10:58:54;;;;;;;;;;;21.10;99.90;;;;;;4964878;28;19924;-83
2022/10/30 11:01:22;;;;;;;;;;;21.00;99.90;;;;;;4966002;28;19918;-88
2022/10/30 11:03:51;;;;;;;;;;;21.10;99.90;;;;;;4968127;28;19941;-85
2022/10/30 11:06:23;;;;;;;;;;;21.10;99.90;;;;;;4968947;28;20634;-85
2022/10/30 11:08:53;;;;;;;;;;;21.20;99.90;;;;;;4962306;28;19913;-84
2022/10/30 11:11:18;;;;;;;;;;;21.20;99.90;;;;;;4950605;28;20287;-85
2022/10/30 11:13:44;;;;;;;;;;;21.20;99.90;;;;;;4966251;28;19964;-86
2022/10/30 11:16:29;;;;;;;;;;;21.30;99.90;;;;;;4967921;28;20000;-85
2022/10/30 11:18:58;;;;;;;;;;;21.20;99.90;;;;;;4963433;28;20264;-86
2022/10/30 11:21:24;;;;;;;;;;;21.30;99.90;;;;;;4965529;28;19910;-85
2022/10/30 11:23:50;;;;;;;;;;;21.20;99.90;;;;;;4964482;28;19910;-83
2022/10/30 11:26:19;;;;;;;;;;;21.20;99.90;;;;;;4962978;28;20376;-85
2022/10/30 11:28:54;;;;;;;;;;;21.30;99.90;;;;;;4964439;28;19918;-85
2022/10/30 11:31:32;;;;;;;;;;;21.20;99.90;;;;;;4961231;28;20376;-85
2022/10/30 11:34:22;;;;;;;;;;;21.20;99.90;;;;;;4966967;28;20026;-84
2022/10/30 11:36:48;;;;;;;;;;;21.30;99.90;;;;;;4964494;28;19910;-86
2022/10/30 11:39:17;;;;;;;;;;;21.30;99.90;;;;;;4957464;28;19918;-85
2022/10/30 11:41:45;;;;;;;;;;;21.30;99.90;;;;;;4967401;28;19914;-86
2022/10/30 11:44:11;;;;;;;;;;;21.30;99.90;;;;;;4968510;28;19910;-86
2022/10/30 11:46:36;;;;;;;;;;;21.30;99.90;;;;;;4952890;28;20232;-87
2022/10/30 11:49:02;;;;;;;;;;;21.30;99.90;;;;;;4966445;28;19922;-86
2022/10/30 11:51:38;;;;;;;;;;;21.40;99.90;;;;;;4968338;28;19910;-86
2022/10/30 11:54:04;;;;;;;;;;;21.40;99.90;;;;;;4966065;28;19956;-86
2022/10/30 11:56:30;;;;;;;;;;;21.40;99.90;;;;;;4963960;28;20348;-86
2022/10/30 11:58:57;;;;;;;;;;;21.40;99.90;;;;;;4967731;28;19926;-86
2022/10/30 12:01:24;;;;;;;;;;;21.40;99.90;;;;;;4965798;28;19910;-85
2022/10/30 12:03:50;;;;;;;;;;;21.40;99.90;;;;;;4966556;28;20008;-86
2022/10/30 12:06:17;;;;;;;;;;;21.40;99.90;;;;;;4965381;28;20016;-85
2022/10/30 12:09:01;;;;;;;;;;;21.40;99.90;;;;;;4959468;28;19929;-85
2022/10/30 12:11:29;;;;;;;;;;;21.40;99.90;;;;;;4965180;28;20030;-86
2022/10/30 12:13:55;;;;;;;;;;;21.50;99.90;;;;;;4965153;28;20319;-86
2022/10/30 12:16:20;;;;;;;;;;;21.60;99.90;;;;;;4963068;28;20001;-85
2022/10/30 12:18:51;;;;;;;;;;;21.60;99.90;;;;;;4961683;28;19922;-86
2022/10/30 12:21:18;;;;;;;;;;;21.60;99.90;;;;;;4965579;28;19914;-86
2022/10/30 12:23:49;;;;;;;;;;;21.60;99.90;;;;;;4966248;28;19917;-86
2022/10/30 12:26:14;;;;;;;;;;;21.70;99.90;;;;;;4961903;28;19910;-87
2022/10/30 12:28:46;;;;;;;;;;;21.70;99.90;;;;;;4962364;28;19910;-86
2022/10/30 12:31:15;;;;;;;;;;;21.70;99.90;;;;;;4963665;28;20366;-86
2022/10/30 12:33:51;;;;;;;;;;;21.70;99.90;;;;;;4966062;28;19981;-86
2022/10/30 12:36:21;;;;;;;;;;;21.70;99.90;;;;;;4966739;28;19917;-86
2022/10/30 12:39:05;;;;;;;;;;;21.80;99.90;;;;;;4962113;28;20354;-85
2022/10/30 12:41:39;;;;;;;;;;;21.80;99.90;;;;;;4965856;28;19910;-86
2022/10/30 12:44:26;;;;;;;;;;;21.90;99.90;;;;;;4966004;28;19910;-87
2022/10/30 12:47:07;;;;;;;;;;;22.00;99.90;;;;;;4962532;28;20052;-85
2022/10/30 12:49:38;;;;;;;;;;;22.20;99.90;;;;;;4965588;28;19929;-86
2022/10/30 12:52:10;;;;;;;;;;;22.20;99.90;;;;;;4966130;28;20044;-85
2022/10/30 12:54:36;;;;;;;;;;;22.20;99.90;;;;;;4962890;28;20367;-84
2022/10/30 12:57:06;;;;;;;;;;;22.20;99.90;;;;;;4965857;28;19910;-84
2022/10/30 12:59:35;;;;;;;;;;;22.10;99.90;;;;;;4962973;28;19949;-85
2022/10/30 13:02:01;;;;;;;;;;;22.10;99.90;;;;;;4963836;28;19921;-85
2022/10/30 13:04:35;;;;;;;;;;;22.00;99.90;;;;;;4969431;28;19914;-86
2022/10/30 13:07:19;;;;;;;;;;;22.00;99.90;;;;;;4961587;28;19910;-85
2022/10/30 13:09:54;;;;;;;;;;;21.90;99.90;;;;;;4967680;28;19957;-85
2022/10/30 13:12:25;;;;;;;;;;;21.90;99.90;;;;;;4967691;28;19924;-84
2022/10/30 13:15:05;;;;;;;;;;;21.80;99.90;;;;;;4967173;28;19910;-85
2022/10/30 13:17:30;;;;;;;;;;;21.80;99.90;;;;;;4966852;28;19957;-85
2022/10/30 13:19:56;;;;;;;;;;;21.80;99.90;;;;;;4971058;28;19950;-86
2022/10/30 13:22:27;;;;;;;;;;;21.80;99.90;;;;;;4969763;28;19949;-83
2022/10/30 13:25:04;;;;;;;;;;;21.80;99.90;;;;;;4971904;28;19910;-87
2022/10/30 13:27:29;;;;;;;;;;;21.90;99.90;;;;;;4967796;28;19910;-86
2022/10/30 13:30:03;;;;;;;;;;;22.00;99.90;;;;;;4959751;28;19965;-85
2022/10/30 13:32:49;;;;;;;;;;;22.00;99.90;;;;;;4964522;28;19914;-86
2022/10/30 13:35:24;;;;;;;;;;;22.00;99.90;;;;;;4967980;28;19953;-86
2022/10/30 13:37:55;;;;;;;;;;;22.00;99.90;;;;;;4967281;28;20372;-84
2022/10/30 13:40:21;;;;;;;;;;;21.90;99.90;;;;;;4966651;28;20380;-86
2022/10/30 13:46:22;;;;;;;21.75;4.28;;;21.90;99.90;;;;;;5086786;27;20126;-85
2022/10/30 13:49:07;;;;;;;10.82;3.45;;;22.10;99.90;;;;;;5066683;28;20099;-85
2022/10/30 13:51:52;;;;;;;17.48;4.20;;;22.10;99.90;;;;;;5073098;28;20038;-86
2022/10/30 13:54:18;;;;;;;;;;;22.10;99.90;;;;;;5073896;28;20024;-86
2022/10/30 13:56:46;;;;;;;13.77;4.18;;;22.10;99.90;;;;;;5071151;28;19930;-86
2022/10/30 13:59:19;;;;;;;13.07;3.53;;;22.00;99.90;;;;;;5068605;28;20055;-86
2022/10/30 14:02:17;;;;;;;29.50;6.05;;;22.00;99.90;;;;;;5068151;28;20066;-85
2022/10/30 14:05:05;;;;;;;20.02;4.68;;;22.00;99.90;;;;;;5066099;28;20041;-86
2022/10/30 14:08:02;;;;;;;12.77;4.38;;;22.00;99.90;;;;;;5073448;28;20028;-87
2022/10/30 14:10:44;;;;;;;10.35;3.42;;;22.00;99.90;;;;;;5071802;28;20433;-85
2022/10/30 14:13:25;;;;;;;16.50;4.00;;;21.90;99.90;;;;;;5070732;28;20037;-86
2022/10/30 14:16:05;;;;;;;13.80;3.83;;;21.90;99.90;;;;;;5069090;28;20466;-85
2022/10/30 14:18:41;;;;;;;16.30;4.40;;;21.90;99.90;;;;;;5063362;28;20028;-86
2022/10/30 14:21:37;;;;;;;27.85;4.35;;;22.10;99.90;;;;;;5067444;28;20025;-84
2022/10/30 14:24:13;;;;;;;26.85;4.28;;;22.20;99.90;;;;;;5073328;28;20044;-87